METAR Data
IDs: Format: Raw Decoded Include TAF

Data at: 0634 UTC 24 Sep 2018

KVNC 240615Z AUTO 07007KT 9SM CLR 26/25 A2999 RMK AO2
KVNC 240555Z AUTO 08007KT 10SM CLR 26/25 A2999 RMK AO2 LTG DSNT SW
KVNC 240535Z AUTO 09006KT 10SM CLR 26/25 A2999 RMK AO2
KVNC 240515Z AUTO 07006KT 9SM CLR 26/25 A2999 RMK AO2
KVNC 240455Z AUTO 06006KT 10SM CLR 26/25 A3000 RMK AO2
KVNC 240435Z AUTO 05006KT 10SM VCTS CLR 26/25 A3000 RMK AO2 LTG DSNT SW AND NW
KVNC 240415Z AUTO 06006KT 10SM VCTS FEW070 SCT080 26/25 A3000 RMK AO2 LTG DSNT W AND NW
KVNC 240355Z AUTO 06006KT 10SM VCTS FEW070 BKN080 26/25 A3001 RMK AO2 LTG DSNT W AND NW
KVNC 240335Z AUTO 06005KT 9SM VCTS CLR 26/25 A3000 RMK AO2 LTG DSNT SW AND W
KVNC 240315Z AUTO 03005KT 10SM SCT043 26/25 A3001 RMK AO2
KVNC 240255Z AUTO 03005KT 10SM BKN042 BKN065 BKN095 26/25 A3000 RMK AO2 LTG DSNT W-N
KVNC 240235Z AUTO 05006KT 9SM FEW031 SCT039 BKN048 26/25 A3000 RMK AO2
KVNC 240215Z AUTO 03004KT 10SM BKN031 BKN037 OVC047 27/25 A3000 RMK AO2 LTG DSNT NW
KVNC 240155Z AUTO 02003KT 10SM VCTS FEW027 BKN032 OVC049 27/26 A2999 RMK AO2 LTG DSNT W AND NW
KVNC 240135Z AUTO 04004KT 10SM FEW028 SCT037 BKN050 27/25 A2999 RMK AO2 LTG DSNT N AND NW
KVNC 240115Z AUTO 00000KT 10SM CLR 27/25 A2997 RMK AO2 LTG DSNT SE AND S AND NW
KVNC 240055Z AUTO 00000KT 10SM FEW050 27/24 A2997 RMK AO2 LTG DSNT N AND SE AND S
KVNC 240035Z AUTO 00000KT 10SM VCTS SCT050 SCT070 27/24 A2996 RMK AO2 LTG DSNT N AND SE AND S
KVNC 240015Z AUTO 32003KT 10SM SCT050 26/24 A2996 RMK AO2 LTG DSNT S
KVNC 232355Z AUTO 32007KT 10SM VCTS CLR 25/23 A2996 RMK AO2 LTG DSNT ALQDS
KVNC 232335Z AUTO 00000KT 9SM VCTS RA CLR 24/23 A2995 RMK AO2 LTG DSNT ALQDS
KVNC 232315Z AUTO VRB06KT 4SM VCTS RA FEW030 FEW039 SCT070 24/22 A2994 RMK AO2 LTG DSNT ALQDS
KVNC 232255Z AUTO 11012G28KT 6SM TS FEW025 SCT030 BKN041 26/20 A2995 RMK AO2
KVNC 232235Z AUTO 32009KT 8SM TS FEW055 32/25 A2995 RMK AO2 LTG DSNT ALQDS
KVNC 232215Z AUTO 25006KT 7SM TS CLR 32/25 A2992 RMK AO2 LTG DSNT N AND NE AND S
KVNC 232155Z AUTO 22005KT 9SM CLR 32/25 A2991 RMK AO2 LTG DSNT N AND NE AND S
KVNC 232135Z AUTO 27005KT 9SM CLR 32/25 A2992 RMK AO2 LTG DSNT N AND NE AND S
KVNC 232115Z AUTO 26006KT 10SM CLR 32/25 A2992 RMK AO2 LTG DSNT N AND SE AND W
KVNC 232055Z AUTO 24006KT 10SM CLR 32/25 A2992 RMK AO2
KVNC 232035Z AUTO 23007KT 8SM FEW050 FEW055 FEW065 32/25 A2992 RMK AO2
KVNC 232015Z AUTO 26006G11KT 8SM SCT048 SCT065 31/25 A2993 RMK AO2
KVNC 231955Z AUTO 24007KT 9SM FEW046 33/25 A2994 RMK AO2
KVNC 231935Z AUTO 26007KT 10SM FEW047 FEW055 32/25 A2995 RMK AO2
KVNC 231915Z AUTO 24007KT 9SM FEW047 SCT055 SCT065 32/25 A2996 RMK AO2
KVNC 231855Z AUTO 26007KT 6SM HZ FEW044 SCT065 SCT085 32/25 A2996 RMK AO2
KVNC 231835Z AUTO 26005KT 9SM BKN041 BKN047 OVC065 31/25 A2997 RMK AO2
KVNC 231815Z AUTO VRB04KT 9SM SCT041 BKN050 32/25 A2998 RMK AO2
KVNC 231755Z AUTO 08004KT 9SM SCT039 BKN048 BKN055 33/23 A2998 RMK AO2
KVNC 231735Z AUTO VRB05G10KT 10SM SCT038 SCT047 BKN055 33/23 A2999 RMK AO2 LTG DSNT SW AND W
KVNC 231715Z AUTO VRB05G12KT 8SM SCT034 BKN048 33/24 A2999 RMK AO2 LTG DSNT NW
KVNC 231655Z AUTO 11006KT 9SM SCT032 BKN049 32/24 A3000 RMK AO2
KVNC 231635Z AUTO VRB05KT 10SM SCT029 SCT034 33/24 A3000 RMK AO2 LTG DSNT W
KVNC 231615Z AUTO VRB04G10KT 8SM SCT025 32/25 A3001 RMK AO2 LTG DSNT W
KVNC 231555Z AUTO 06006KT 9SM BKN024 BKN031 31/25 A3001 RMK AO2 LTG DSNT W
KVNC 231535Z AUTO 11005KT 9SM SCT021 31/25 A3002 RMK AO2
KVNC 231515Z AUTO 10006G12KT 9SM FEW019 31/25 A3002 RMK AO2
KVNC 231455Z AUTO 09008KT 9SM SCT019 30/25 A3002 RMK AO2
KVNC 231435Z AUTO 13007KT 10SM FEW019 30/25 A3002 RMK AO2
KVNC 231415Z AUTO 12008KT 10SM VCTS CLR 29/25 A3001 RMK AO2 LTG DSNT W
KVNC 231355Z AUTO 10007KT 8SM VCTS CLR 29/25 A3001 RMK AO2 LTG DSNT W
KVNC 231335Z AUTO 11007KT 10SM CLR 28/25 A3000 RMK AO2
KVNC 231315Z AUTO 11006KT 10SM CLR 27/25 A3000 RMK AO2 LTG DSNT SW AND W
KVNC 231255Z AUTO 08008KT 10SM CLR 27/25 A2999 RMK AO2
KVNC 231235Z AUTO 08006KT 10SM CLR 26/25 A2999 RMK AO2
KVNC 231215Z AUTO 08006KT 9SM CLR 25/25 A2998 RMK AO2
KVNC 231155Z AUTO 08005KT 8SM CLR 25/25 A2998 RMK AO2
KVNC 231135Z AUTO 08006KT 7SM CLR 24/24 A2997 RMK AO2
KVNC 231115Z AUTO 06006KT 6SM BR CLR 24/24 A2997 RMK AO2
KVNC 231055Z AUTO 06005KT 8SM CLR 25/25 A2997 RMK AO2 LTG DSNT SW AND W
KVNC 231035Z AUTO 08006KT 9SM CLR 25/25 A2996 RMK AO2
KVNC 231015Z AUTO 8SM CLR A2996 RMK AO2 LTG DSNT SW
KVNC 230955Z AUTO 08007KT 8SM CLR 25/25 A2996 RMK AO2
KVNC 230935Z AUTO 08007KT 7SM CLR 25/25 A2995 RMK AO2 LTG DSNT SW
KVNC 230915Z AUTO 07006KT 7SM CLR 25/25 A2995 RMK AO2 LTG DSNT SW AND W
KVNC 230855Z AUTO 08008KT 8SM CLR 25/25 A2995 RMK AO2 LTG DSNT SW AND W
KVNC 230835Z AUTO 07007KT 8SM CLR 25/25 A2995 RMK AO2 LTG DSNT W AND NW
KVNC 230815Z AUTO 07006KT 7SM CLR 25/25 A2995 RMK AO2 LTG DSNT SW AND W
KVNC 230755Z AUTO 07006KT 7SM CLR 25/25 A2996 RMK AO2 LTG DSNT W
KVNC 230735Z AUTO 07007KT 7SM CLR 25/25 A2996 RMK AO2 LTG DSNT W
KVNC 230715Z AUTO 08007KT 7SM CLR 25/25 A2996 RMK AO2
KVNC 230655Z AUTO 07006KT 8SM CLR 25/25 A2996 RMK AO2
KVNC 230635Z AUTO 06007KT 7SM CLR 25/25 A2997 RMK AO2 LTG DSNT W-N
KVNC 230615Z AUTO 07007KT 8SM CLR 25/25 A2997 RMK AO2 LTG DSNT NW
KVNC 230555Z AUTO 06008KT 9SM CLR 25/25 A2998 RMK AO2 LTG DSNT W AND NW
KVNC 230535Z AUTO 07006KT 9SM CLR 25/25 A2999 RMK AO2 LTG DSNT NW
KVNC 230515Z AUTO 08006KT 10SM CLR 25/25 A2999 RMK AO2 LTG DSNT W AND NW
KVNC 230455Z AUTO 06006KT 9SM CLR 25/25 A3000 RMK AO2 LTG DSNT SW-NW
KVNC 230435Z AUTO 06005KT 9SM CLR 25/25 A3001 RMK AO2
KVNC 230415Z AUTO 06006KT 9SM CLR 25/25 A3001 RMK AO2
KVNC 230355Z AUTO 06004KT 9SM CLR 25/25 A3001 RMK AO2
KVNC 230335Z AUTO 06003KT 10SM CLR 25/25 A3001 RMK AO2
KVNC 230315Z AUTO 08004KT 10SM CLR 25/25 A3001 RMK AO2 LTG DSNT W AND NW
KVNC 230255Z AUTO 08005KT 9SM CLR 25/25 A3001 RMK AO2 LTG DSNT W AND NW
KVNC 230235Z AUTO 09005KT 10SM CLR 25/25 A3000 RMK AO2 LTG DSNT W AND NW
KVNC 230215Z AUTO 09006KT 10SM CLR 25/25 A2999 RMK AO2 LTG DSNT W AND NW
KVNC 230155Z AUTO 08006KT 10SM CLR 25/25 A2999 RMK AO2 LTG DSNT N AND NW
KVNC 230135Z AUTO 07007KT 10SM CLR 25/25 A2998 RMK AO2 LTG DSNT NW
KVNC 230115Z AUTO 08007KT 10SM FEW060 26/25 A2998 RMK AO2
KVNC 230055Z AUTO 09009KT 10SM CLR 25/24 A2997 RMK AO2
KVNC 230035Z AUTO 09009KT 10SM FEW037 FEW046 FEW060 25/24 A2997 RMK AO2
KVNC 230015Z AUTO 08007KT 10SM CLR 25/24 A2996 RMK AO2
KVNC 222355Z AUTO 06005KT 10SM FEW055 FEW065 FEW085 25/24 A2996 RMK AO2 LTG DSNT SE AND NW
KVNC 222335Z AUTO 04006KT 10SM FEW028 FEW034 FEW042 25/24 A2995 RMK AO2 LTG DSNT SE
KVNC 222315Z AUTO 05007KT 3SM -RA FEW027 SCT038 BKN085 25/23 A2996 RMK AO2 LTG DSNT E AND SE
KVNC 222255Z AUTO 10013KT 10SM TS SCT050 BKN075 BKN085 26/24 A2998 RMK AO2 LTG DSNT NE-S
KVNC 222235Z AUTO 00000KT 10SM VCTS FEW003 BKN047 OVC100 27/25 A2996 RMK AO2 LTG DSNT E-S
KVNC 222215Z AUTO 33007G17KT 3/4SM +TSRA BKN003 OVC025 25/22 A2995 RMK AO2 LTG DSNT ALQDS
KVNC 222155Z AUTO 16014G19KT 3SM -TSRA FEW025 SCT030 BKN046 27/24 A2996 RMK AO2 LTG DSNT ALQDS
KVNC 222135Z AUTO 22003KT 6SM TS FEW043 FEW050 SCT075 31/23 A2995 RMK AO2 LTG DSNT E-SW
KVNC 222115Z AUTO 26005KT 9SM VCTS BKN043 BKN050 OVC075 30/23 A2995 RMK AO2 LTG DSNT ALQDS
KVNC 222055Z AUTO 27008KT 6SM HZ BKN042 BKN060 OVC080 29/24 A2995 RMK AO2 LTG DSNT ALQDS
KVNC 222035Z AUTO 29007KT 9SM BKN041 BKN055 30/24 A2995 RMK AO2 LTG DSNT E AND SE
KVNC 222015Z AUTO 00000KT 8SM FEW044 FEW050 SCT080 32/23 A2995 RMK AO2 LTG DSNT ALQDS
KVNC 221955Z AUTO 06006G12KT 10SM FEW041 SCT050 OVC080 32/23 A2995 RMK AO2 LTG DSNT ALQDS
KVNC 221935Z AUTO 05008KT 9SM BKN042 BKN050 BKN070 32/23 A2996 RMK AO2 LTG DSNT S AND SW
KVNC 221915Z AUTO 05008KT 10SM SCT042 SCT049 33/23 A2997 RMK AO2
KVNC 221855Z AUTO 10009KT 9SM CLR 33/23 A2998 RMK AO2 LTG DSNT SE AND SW
KVNC 221835Z AUTO 12010KT 9SM FEW040 FEW049 SCT065 32/23 A2998 RMK AO2